createdAt,value
2018-10-07T00:01:57.519Z,76.41
2018-10-07T00:04:28.341Z,76.32
2018-10-07T00:06:58.947Z,76.47
2018-10-07T00:09:29.545Z,76.58
2018-10-07T00:12:00.157Z,76.54
2018-10-07T00:14:30.775Z,76.40
2018-10-07T00:17:01.372Z,76.20
2018-10-07T00:19:32.368Z,77.13
2018-10-07T00:22:02.960Z,77.24
2018-10-07T00:24:33.569Z,76.61
2018-10-07T00:27:04.175Z,76.48
2018-10-07T00:29:34.764Z,76.87
2018-10-07T00:32:10.486Z,77.38
2018-10-07T00:34:41.124Z,77.35
2018-10-07T00:37:11.459Z,77.33
2018-10-07T00:39:42.310Z,77.70
2018-10-07T00:42:13.233Z,77.73
2018-10-07T00:44:43.839Z,77.56
2018-10-07T00:47:14.632Z,78.11
2018-10-07T00:49:45.259Z,77.59
2018-10-07T00:52:15.849Z,77.80
2018-10-07T00:54:46.476Z,77.43
2018-10-07T00:57:17.088Z,77.87
2018-10-07T00:59:47.696Z,78.05
2018-10-07T01:02:18.324Z,77.85
2018-10-07T01:04:48.940Z,77.42
2018-10-07T01:07:19.563Z,77.79
2018-10-07T01:09:50.139Z,77.95
2018-10-07T01:12:20.471Z,77.71
2018-10-07T01:14:51.067Z,77.70
2018-10-07T01:17:21.692Z,77.95
2018-10-07T01:19:52.329Z,78.19
2018-10-07T01:22:23.500Z,78.32
2018-10-07T01:24:53.802Z,78.20
2018-10-07T01:27:24.396Z,78.41
2018-10-07T01:29:55.003Z,78.59
2018-10-07T01:32:25.627Z,78.40
2018-10-07T01:34:56.232Z,78.67
2018-10-07T01:37:26.847Z,78.66
2018-10-07T01:39:57.439Z,78.59
2018-10-07T01:42:28.055Z,78.80
2018-10-07T01:44:58.649Z,78.74
2018-10-07T01:47:29.207Z,78.84
2018-10-07T01:49:59.808Z,78.77
2018-10-07T01:52:30.413Z,79.06
2018-10-07T01:55:01.065Z,79.11
2018-10-07T01:57:31.730Z,79.16
2018-10-07T02:00:02.371Z,79.16
2018-10-07T02:02:32.936Z,79.40
2018-10-07T02:05:03.656Z,79.04
2018-10-07T02:07:34.415Z,79.23
2018-10-07T02:10:05.015Z,79.06
2018-10-07T02:12:35.628Z,79.06
2018-10-07T02:15:06.666Z,78.93
2018-10-07T02:17:37.608Z,78.90
2018-10-07T02:20:08.235Z,79.10
2018-10-07T02:22:39.084Z,79.17
2018-10-07T02:25:09.709Z,79.19
2018-10-07T02:27:40.344Z,79.40
2018-10-07T02:30:10.960Z,79.16
2018-10-07T02:32:41.559Z,79.44
2018-10-07T02:35:12.396Z,79.22
2018-10-07T02:37:43.003Z,79.42
2018-10-07T02:40:13.952Z,79.54
2018-10-07T02:42:44.630Z,79.67
2018-10-07T02:45:15.259Z,79.76
2018-10-07T02:47:45.908Z,79.38
2018-10-07T02:50:21.022Z,79.35
2018-10-07T02:52:54.295Z,79.81
2018-10-07T02:55:30.166Z,79.79
2018-10-07T02:58:03.497Z,79.40
2018-10-07T03:00:34.547Z,79.59
2018-10-07T03:03:05.470Z,79.65
2018-10-07T03:05:36.084Z,79.32
2018-10-07T03:08:06.713Z,79.72
2018-10-07T03:10:37.652Z,79.64
2018-10-07T03:13:08.249Z,79.70
2018-10-07T03:15:38.912Z,79.57
2018-10-07T03:18:09.719Z,79.77
2018-10-07T03:20:40.507Z,79.93
2018-10-07T03:23:11.099Z,79.70
2018-10-07T03:25:41.706Z,79.56
2018-10-07T03:28:12.032Z,79.51
2018-10-07T03:30:42.628Z,79.28
2018-10-07T03:33:13.191Z,79.49
2018-10-07T03:35:43.793Z,79.38
2018-10-07T03:38:14.391Z,79.25
2018-10-07T03:40:45.134Z,79.02
2018-10-07T03:43:15.727Z,79.13
2018-10-07T03:45:46.402Z,79.12
2018-10-07T03:48:16.738Z,79.23
2018-10-07T03:50:47.048Z,79.30
2018-10-07T03:53:17.904Z,79.11
2018-10-07T03:55:48.538Z,79.25
2018-10-07T03:58:19.174Z,79.23
2018-10-07T04:00:49.853Z,79.14
2018-10-07T04:03:20.808Z,79.47
2018-10-07T04:05:51.771Z,79.39
2018-10-07T04:08:22.380Z,79.39
2018-10-07T04:10:52.971Z,79.43
2018-10-07T04:13:23.567Z,78.93
2018-10-07T04:15:54.246Z,79.80
2018-10-07T04:18:24.843Z,79.75
2018-10-07T04:20:55.463Z,79.66
2018-10-07T04:23:26.073Z,79.06
2018-10-07T04:25:56.901Z,79.55
2018-10-07T04:28:27.492Z,79.92
2018-10-07T04:30:58.446Z,80.19
2018-10-07T04:33:29.072Z,79.67
2018-10-07T04:36:00.489Z,79.95
2018-10-07T04:38:31.286Z,79.53
2018-10-07T04:41:02.064Z,79.88
2018-10-07T04:43:32.693Z,80.12
2018-10-07T04:46:03.668Z,80.18
2018-10-07T04:48:34.268Z,80.20
2018-10-07T04:51:04.911Z,80.22
2018-10-07T04:53:35.731Z,79.79
2018-10-07T04:56:07.003Z,79.51
2018-10-07T04:58:37.643Z,79.93
2018-10-07T05:01:08.374Z,79.27
2018-10-07T05:03:38.983Z,79.48
2018-10-07T05:06:10.241Z,79.96
2018-10-07T05:08:40.934Z,79.78
2018-10-07T05:11:11.935Z,79.82
2018-10-07T05:13:50.584Z,80.08
2018-10-07T05:16:37.326Z,80.48
2018-10-07T05:19:08.212Z,79.83
2018-10-07T05:21:38.912Z,79.22
2018-10-07T05:24:09.525Z,79.44
2018-10-07T05:26:40.233Z,80.06
2018-10-07T05:29:11.029Z,80.13
2018-10-07T05:31:41.623Z,80.32
2018-10-07T05:34:12.242Z,80.63
2018-10-07T05:36:42.626Z,80.75
2018-10-07T05:39:13.540Z,80.70
2018-10-07T05:41:44.140Z,81.36
2018-10-07T05:44:14.779Z,80.24
2018-10-07T05:46:45.574Z,79.90
2018-10-07T05:49:16.247Z,79.97
2018-10-07T05:51:46.894Z,80.30
2018-10-07T05:54:17.542Z,80.66
2018-10-07T05:56:48.212Z,80.20
2018-10-07T05:59:18.892Z,80.22
2018-10-07T06:04:42.313Z,79.65
2018-10-07T06:07:14.296Z,79.50
2018-10-07T06:09:46.716Z,79.33
2018-10-07T06:12:18.275Z,79.01
2018-10-07T06:15:05.787Z,79.28
2018-10-07T06:17:36.851Z,78.19
2018-10-07T06:20:07.489Z,78.05
2018-10-07T06:22:39.039Z,77.59
2018-10-07T06:25:10.171Z,77.18
2018-10-07T06:27:46.075Z,76.79
2018-10-07T06:30:22.325Z,76.76
2018-10-07T06:32:54.164Z,75.79
2018-10-07T06:35:27.527Z,75.77
2018-10-07T06:38:02.016Z,75.52
2018-10-07T06:40:32.671Z,75.06
2018-10-07T06:43:08.521Z,74.57
2018-10-07T06:48:20.129Z,73.90
2018-10-07T06:50:50.965Z,73.17
2018-10-07T06:53:22.207Z,72.62
2018-10-07T06:55:52.846Z,72.83
2018-10-07T06:58:23.443Z,71.53
2018-10-07T07:00:54.096Z,71.82
2018-10-07T07:03:24.695Z,71.74
2018-10-07T07:05:55.341Z,71.28
2018-10-07T07:08:26.113Z,71.24
2018-10-07T07:11:04.721Z,70.58
2018-10-07T07:13:35.827Z,69.40
2018-10-07T07:16:12.483Z,69.96
2018-10-07T07:18:43.596Z,70.42
2018-10-07T07:21:14.224Z,69.37
2018-10-07T07:23:44.864Z,70.68
2018-10-07T07:26:18.440Z,69.36
2018-10-07T07:28:49.089Z,69.95
2018-10-07T07:31:19.728Z,69.10
2018-10-07T07:33:50.630Z,69.46
2018-10-07T07:36:22.192Z,68.81
2018-10-07T07:38:52.787Z,69.00
2018-10-07T07:41:23.683Z,68.34
2018-10-07T07:43:54.252Z,67.51
2018-10-07T07:46:25.148Z,66.60
2018-10-07T07:48:56.687Z,67.54
2018-10-07T07:51:27.497Z,67.05
2018-10-07T07:53:58.115Z,67.02
2018-10-07T07:56:28.799Z,67.20
2018-10-07T07:58:59.391Z,66.36
2018-10-07T08:01:29.998Z,67.00
2018-10-07T08:04:00.780Z,66.81
2018-10-07T08:06:31.435Z,65.49
2018-10-07T08:09:02.031Z,65.51
2018-10-07T08:11:32.367Z,64.98
2018-10-07T08:14:03.427Z,64.89
2018-10-07T08:16:34.067Z,64.95
2018-10-07T08:19:04.753Z,63.72
2018-10-07T08:21:35.400Z,63.73
2018-10-07T08:24:06.094Z,63.56
2018-10-07T08:26:37.047Z,63.01
2018-10-07T08:29:07.891Z,62.43
2018-10-07T08:31:38.634Z,63.53
2018-10-07T08:34:09.675Z,62.95
2018-10-07T08:36:40.308Z,62.26
2018-10-07T08:39:11.295Z,61.88
2018-10-07T08:41:41.891Z,61.66
2018-10-07T08:44:12.803Z,61.19
2018-10-07T08:46:43.443Z,59.59
2018-10-07T08:49:14.201Z,59.39
2018-10-07T08:51:44.884Z,59.45
2018-10-07T08:54:15.499Z,58.46
2018-10-07T08:56:46.168Z,59.26
2018-10-07T08:59:17.064Z,59.20
2018-10-07T09:01:47.680Z,58.17
2018-10-07T09:04:18.289Z,57.38
2018-10-07T09:06:49.280Z,57.71
2018-10-07T09:09:20.051Z,56.91
2018-10-07T09:11:51.190Z,56.68
2018-10-07T09:14:21.753Z,55.33
2018-10-07T09:16:53.593Z,56.45
2018-10-07T09:19:25.171Z,56.35
2018-10-07T09:21:59.896Z,55.19
2018-10-07T09:24:31.060Z,55.12
2018-10-07T09:27:02.219Z,55.26
2018-10-07T09:29:33.124Z,55.58
2018-10-07T09:32:05.676Z,54.84
2018-10-07T09:34:36.371Z,54.53
2018-10-07T09:37:07.411Z,54.51
2018-10-07T09:39:38.046Z,53.79
2018-10-07T09:42:08.993Z,54.01
2018-10-07T09:44:40.967Z,54.53
2018-10-07T09:47:11.687Z,55.23
2018-10-07T09:49:43.247Z,55.26
2018-10-07T09:52:14.654Z,55.69
2018-10-07T09:54:45.426Z,56.44
2018-10-07T09:57:16.216Z,56.04
2018-10-07T09:59:47.002Z,56.02
2018-10-07T10:02:17.572Z,56.54
2018-10-07T10:04:48.272Z,55.00
2018-10-07T10:07:18.904Z,54.92
2018-10-07T10:09:49.831Z,54.48
2018-10-07T10:12:20.444Z,54.19
2018-10-07T10:14:51.089Z,54.34
2018-10-07T10:17:24.348Z,54.43
2018-10-07T10:20:09.995Z,53.96
2018-10-07T10:23:07.616Z,53.63
2018-10-07T10:25:59.056Z,53.87
2018-10-07T10:29:00.431Z,53.76
2018-10-07T10:32:47.695Z,54.70
2018-10-07T10:35:38.348Z,54.13
2018-10-07T10:38:29.417Z,53.29
2018-10-07T10:41:12.925Z,53.21
2018-10-07T10:43:55.101Z,54.19
2018-10-07T10:46:33.475Z,53.31
2018-10-07T10:49:19.712Z,53.11
2018-10-07T10:52:16.208Z,54.42
2018-10-07T10:55:53.960Z,53.11
2018-10-07T10:58:38.920Z,53.29
2018-10-07T11:01:23.801Z,53.71
2018-10-07T11:04:28.646Z,53.69
2018-10-07T11:07:07.645Z,52.87
2018-10-07T11:09:50.976Z,52.50
2018-10-07T11:12:38.250Z,52.50
2018-10-07T11:15:17.876Z,52.64
2018-10-07T11:18:52.360Z,52.89
2018-10-07T11:22:03.782Z,52.36
2018-10-07T11:24:44.260Z,52.76
2018-10-07T11:27:36.928Z,52.71
2018-10-07T11:32:26.658Z,52.55
2018-10-07T11:36:20.539Z,52.56
2018-10-07T11:39:09.680Z,52.71
2018-10-07T11:42:24.531Z,52.11
2018-10-07T11:45:16.377Z,52.31
2018-10-07T11:48:11.248Z,53.17
2018-10-07T11:51:01.240Z,52.29
2018-10-07T11:53:38.623Z,52.45
2018-10-07T11:56:11.500Z,53.62
2018-10-07T11:58:45.728Z,53.18
2018-10-07T12:01:18.336Z,52.37
2018-10-07T12:03:53.312Z,53.32
2018-10-07T12:06:26.561Z,53.12
2018-10-07T12:08:57.357Z,52.99
2018-10-07T12:11:28.922Z,52.23
2018-10-07T12:13:59.970Z,51.70
2018-10-07T12:16:30.842Z,51.62
2018-10-07T12:19:01.652Z,52.35
2018-10-07T12:21:32.339Z,52.21
2018-10-07T12:24:03.096Z,51.99
2018-10-07T12:26:34.753Z,51.67
2018-10-07T12:29:09.480Z,51.54
2018-10-07T12:31:40.406Z,51.30
2018-10-07T12:34:11.139Z,51.05
2018-10-07T12:36:42.363Z,51.23
2018-10-07T12:39:13.220Z,51.59
2018-10-07T12:41:44.171Z,51.66
2018-10-07T12:44:17.867Z,51.56
2018-10-07T12:46:58.545Z,51.23
2018-10-07T12:49:29.349Z,50.60
2018-10-07T12:52:02.393Z,50.32
2018-10-07T12:54:36.841Z,50.79
2018-10-07T12:57:07.664Z,51.50
2018-10-07T12:59:38.341Z,50.56
2018-10-07T13:02:09.113Z,51.14
2018-10-07T13:04:39.491Z,51.66
2018-10-07T13:07:10.171Z,51.43
2018-10-07T13:09:40.482Z,50.53
2018-10-07T13:12:11.312Z,50.16
2018-10-07T13:14:42.011Z,50.49
2018-10-07T13:17:12.767Z,50.96
2018-10-07T13:19:43.347Z,50.39
2018-10-07T13:22:13.971Z,51.02
2018-10-07T13:24:44.568Z,51.10
2018-10-07T13:27:15.471Z,50.61
2018-10-07T13:29:46.179Z,51.17
2018-10-07T13:32:16.864Z,50.64
2018-10-07T13:34:47.523Z,51.38
2018-10-07T13:37:21.240Z,50.71
2018-10-07T13:39:52.162Z,50.86
2018-10-07T13:42:23.067Z,49.50
2018-10-07T13:44:54.192Z,50.06
2018-10-07T13:47:24.839Z,50.50
2018-10-07T13:49:55.555Z,49.60
2018-10-07T13:52:26.193Z,50.17
2018-10-07T13:54:56.782Z,50.39
2018-10-07T13:57:27.537Z,49.96
2018-10-07T13:59:58.607Z,50.89
2018-10-07T14:02:29.276Z,50.60
2018-10-07T14:05:00.236Z,50.82
2018-10-07T14:07:38.032Z,50.64
2018-10-07T14:10:10.378Z,50.95
2018-10-07T14:12:44.100Z,51.37
2018-10-07T14:15:14.783Z,51.77
2018-10-07T14:17:48.221Z,51.69
2018-10-07T14:20:18.874Z,51.10
2018-10-07T14:22:50.016Z,51.72
2018-10-07T14:25:20.664Z,51.20
2018-10-07T14:27:52.136Z,51.53
2018-10-07T14:30:23.028Z,51.21
2018-10-07T14:32:54.363Z,51.72
2018-10-07T14:35:31.705Z,51.68
2018-10-07T14:38:03.948Z,51.68
2018-10-07T14:40:35.211Z,51.14
2018-10-07T14:43:06.189Z,51.55
2018-10-07T14:45:36.796Z,51.29
2018-10-07T14:48:07.184Z,51.51
2018-10-07T14:50:38.140Z,51.51
2018-10-07T14:53:08.872Z,52.30
2018-10-07T14:55:39.819Z,52.19
2018-10-07T14:58:10.444Z,52.61
2018-10-07T15:00:41.497Z,52.67
2018-10-07T15:03:12.423Z,53.16
2018-10-07T15:05:43.494Z,52.66
2018-10-07T15:08:14.197Z,50.75
2018-10-07T15:10:44.908Z,51.02
2018-10-07T15:13:15.978Z,51.54
2018-10-07T15:15:46.300Z,51.55
2018-10-07T15:18:16.675Z,51.71
2018-10-07T15:20:47.305Z,52.02
2018-10-07T15:23:17.979Z,50.80
2018-10-07T15:25:49.035Z,51.15
2018-10-07T15:28:19.687Z,51.93
2018-10-07T15:30:50.551Z,51.13
2018-10-07T15:33:21.415Z,51.81
2018-10-07T15:35:51.875Z,51.45
2018-10-07T15:38:22.556Z,52.48
2018-10-07T15:40:53.713Z,52.39
2018-10-07T15:43:24.308Z,52.51
2018-10-07T15:45:54.982Z,52.11
2018-10-07T15:48:25.704Z,52.10
2018-10-07T15:50:58.358Z,52.16
2018-10-07T15:53:29.521Z,52.63
2018-10-07T15:56:00.608Z,52.57
2018-10-07T15:58:32.116Z,53.55
2018-10-07T16:01:03.411Z,52.90
2018-10-07T16:03:37.118Z,53.55
2018-10-07T16:06:08.405Z,53.58
2018-10-07T16:08:39.387Z,53.94
2018-10-07T16:11:14.192Z,54.30
2018-10-07T16:13:44.946Z,54.95
2018-10-07T16:16:15.527Z,54.33
2018-10-07T16:18:46.164Z,55.16
2018-10-07T16:21:16.982Z,55.09
2018-10-07T16:23:49.265Z,55.38
2018-10-07T16:26:21.968Z,55.23
2018-10-07T16:28:52.704Z,56.32
2018-10-07T16:31:25.422Z,56.60
2018-10-07T16:33:57.093Z,56.71
2018-10-07T16:36:28.052Z,56.97
2018-10-07T16:38:58.667Z,56.96
2018-10-07T16:41:29.855Z,57.37
2018-10-07T16:44:00.551Z,57.04
2018-10-07T16:46:31.381Z,57.22
2018-10-07T16:49:02.447Z,57.57
2018-10-07T16:51:33.066Z,57.99
2018-10-07T16:54:05.344Z,58.59
2018-10-07T16:56:35.919Z,57.94
2018-10-07T16:59:07.509Z,58.89
2018-10-07T17:01:38.489Z,58.20
2018-10-07T17:04:13.002Z,58.39
2018-10-07T17:06:48.868Z,59.27
2018-10-07T17:09:19.962Z,58.60
2018-10-07T17:11:54.809Z,59.81
2018-10-07T17:14:26.668Z,59.46
2018-10-07T17:16:57.393Z,59.09
2018-10-07T17:19:28.284Z,60.02
2018-10-07T17:21:58.936Z,59.78
2018-10-07T17:24:29.519Z,60.25
2018-10-07T17:27:00.202Z,59.56
2018-10-07T17:29:31.007Z,59.90
2018-10-07T17:32:01.640Z,60.62
2018-10-07T17:34:32.212Z,60.75
2018-10-07T17:37:02.988Z,60.78
2018-10-07T17:39:33.636Z,61.12
2018-10-07T17:42:04.383Z,60.91
2018-10-07T17:44:36.728Z,61.97
2018-10-07T17:47:07.887Z,62.13
2018-10-07T17:49:38.382Z,61.58
2018-10-07T17:52:09.075Z,62.13
2018-10-07T17:54:39.567Z,62.60
2018-10-07T17:57:10.801Z,62.65
2018-10-07T17:59:41.507Z,62.07
2018-10-07T18:02:12.783Z,61.97
2018-10-07T18:04:43.432Z,61.74
2018-10-07T18:07:14.234Z,62.20
2018-10-07T18:09:44.908Z,62.17
2018-10-07T18:12:15.539Z,62.70
2018-10-07T18:14:46.394Z,62.73
2018-10-07T18:17:17.152Z,63.23
2018-10-07T18:19:48.139Z,63.53
2018-10-07T18:22:18.867Z,63.51
2018-10-07T18:24:49.600Z,63.23
2018-10-07T18:27:20.168Z,63.51
2018-10-07T18:29:50.964Z,63.13
2018-10-07T18:32:21.383Z,63.68
2018-10-07T18:34:51.957Z,64.36
2018-10-07T18:37:22.934Z,64.39
2018-10-07T18:39:54.139Z,64.07
2018-10-07T18:42:25.526Z,64.58
2018-10-07T18:45:00.402Z,64.28
2018-10-07T18:47:32.946Z,64.96
2018-10-07T18:50:07.677Z,65.05
2018-10-07T18:52:38.298Z,65.55
2018-10-07T18:55:12.647Z,64.79
2018-10-07T18:57:43.285Z,65.14
2018-10-07T19:00:14.720Z,65.59
2018-10-07T19:02:50.408Z,65.66
2018-10-07T19:05:22.212Z,65.46
2018-10-07T19:07:53.856Z,65.37
2018-10-07T19:10:24.555Z,65.82
2018-10-07T19:12:55.157Z,66.65
2018-10-07T19:15:26.703Z,66.16
2018-10-07T19:17:57.104Z,66.10
2018-10-07T19:20:27.875Z,66.30
2018-10-07T19:22:58.659Z,66.72
2018-10-07T19:25:29.291Z,66.34
2018-10-07T19:28:01.248Z,66.56
2018-10-07T19:30:32.028Z,67.03
2018-10-07T19:33:04.010Z,67.27
2018-10-07T19:38:23.831Z,67.08
2018-10-07T19:40:54.439Z,67.25
2018-10-07T19:43:26.726Z,68.01
2018-10-07T19:45:57.418Z,67.83
2018-10-07T19:48:28.139Z,68.34
2018-10-07T19:50:58.858Z,68.20
2018-10-07T19:53:29.496Z,68.40
2018-10-07T19:56:00.430Z,67.83
2018-10-07T19:58:31.076Z,67.87
2018-10-07T20:01:01.701Z,68.08
2018-10-07T20:03:32.621Z,68.49
2018-10-07T20:06:03.284Z,68.13
2018-10-07T20:08:34.145Z,67.92
2018-10-07T20:11:04.805Z,68.22
2018-10-07T20:13:35.480Z,67.99
2018-10-07T20:16:06.389Z,68.04
2018-10-07T20:18:38.278Z,68.30
2018-10-07T20:21:10.993Z,68.30
2018-10-07T20:23:46.390Z,68.10
2018-10-07T20:26:18.227Z,69.03
2018-10-07T20:28:51.852Z,68.80
2018-10-07T20:31:22.832Z,68.89
2018-10-07T20:33:54.033Z,69.20
2018-10-07T20:36:24.925Z,68.99
2018-10-07T20:38:56.385Z,68.79
2018-10-07T20:41:29.379Z,69.21
2018-10-07T20:44:00.316Z,68.55
2018-10-07T20:46:31.186Z,69.32
2018-10-07T20:49:01.899Z,69.06
2018-10-07T20:51:32.496Z,69.10
2018-10-07T20:54:03.208Z,69.60
2018-10-07T20:56:33.844Z,69.85
2018-10-07T20:59:04.937Z,69.58
2018-10-07T21:01:35.513Z,69.09
2018-10-07T21:04:06.208Z,69.39
2018-10-07T21:06:36.848Z,69.10
2018-10-07T21:09:10.816Z,69.79
2018-10-07T21:11:41.641Z,69.57
2018-10-07T21:14:12.252Z,69.58
2018-10-07T21:16:42.890Z,69.27
2018-10-07T21:19:13.557Z,69.58
2018-10-07T21:21:44.195Z,69.52
2018-10-07T21:24:14.849Z,69.91
2018-10-07T21:26:45.643Z,69.52
2018-10-07T21:29:16.291Z,69.73
2018-10-07T21:31:47.475Z,69.08
2018-10-07T21:34:18.107Z,69.32
2018-10-07T21:36:48.691Z,69.41
2018-10-07T21:39:19.857Z,68.88
2018-10-07T21:41:50.527Z,69.78
2018-10-07T21:44:25.597Z,69.60
2018-10-07T21:47:02.356Z,69.28
2018-10-07T21:49:33.179Z,69.41
2018-10-07T21:52:03.992Z,69.55
2018-10-07T21:54:45.071Z,69.43
2018-10-07T21:57:20.973Z,68.94
2018-10-07T21:59:51.747Z,69.88
2018-10-07T22:02:22.408Z,69.09
2018-10-07T22:04:53.159Z,69.47
2018-10-07T22:07:24.008Z,69.18
2018-10-07T22:09:54.739Z,69.60
2018-10-07T22:12:25.125Z,69.79
2018-10-07T22:14:56.234Z,69.53
2018-10-07T22:17:29.019Z,69.92
2018-10-07T22:20:03.560Z,70.27
2018-10-07T22:22:35.131Z,70.56
2018-10-07T22:25:06.396Z,70.10
2018-10-07T22:27:43.859Z,69.75
2018-10-07T22:30:14.814Z,69.78
2018-10-07T22:32:45.516Z,70.25
2018-10-07T22:35:16.306Z,70.40
2018-10-07T22:37:46.853Z,70.55
2018-10-07T22:40:17.554Z,70.06
2018-10-07T22:42:48.156Z,70.37
2018-10-07T22:45:18.784Z,70.32
2018-10-07T22:47:49.404Z,70.15
2018-10-07T22:50:19.891Z,70.59
2018-10-07T22:52:50.510Z,70.62
2018-10-07T22:55:21.456Z,71.60
2018-10-07T22:57:53.460Z,71.33
2018-10-07T23:00:25.071Z,71.62
2018-10-07T23:02:55.798Z,72.64
2018-10-07T23:05:26.394Z,71.90
2018-10-07T23:07:56.695Z,71.71
2018-10-07T23:10:27.280Z,71.43
2018-10-07T23:12:57.907Z,72.06
2018-10-07T23:15:28.241Z,72.39
2018-10-07T23:17:58.835Z,73.01
2018-10-07T23:20:29.500Z,73.27
2018-10-07T23:23:00.068Z,73.26
2018-10-07T23:25:30.958Z,72.86
2018-10-07T23:28:01.581Z,72.68
2018-10-07T23:30:32.417Z,72.89
2018-10-07T23:33:03.288Z,72.91
2018-10-07T23:35:34.075Z,73.42
2018-10-07T23:38:04.659Z,73.66
2018-10-07T23:40:35.253Z,74.58
2018-10-07T23:43:05.965Z,73.63
2018-10-07T23:45:36.514Z,73.19
2018-10-07T23:48:08.175Z,73.50
2018-10-07T23:50:38.800Z,73.34
2018-10-07T23:53:09.499Z,73.52
2018-10-07T23:55:41.215Z,73.70
2018-10-07T23:58:12.167Z,74.37
